sensor_id;sensor_type;location;lat;lon;timestamp;pressure;altitude;pressure_sealevel;temperature;humidity
4410;BME280;2218;51.408;7.208;2023-08-24T00:00:17;100020.50;;;24.95;54.11
4410;BME280;2218;51.408;7.208;2023-08-24T00:02:43;100017.84;;;24.95;54.16
4410;BME280;2218;51.408;7.208;2023-08-24T00:05:11;100009.88;;;24.95;54.19
4410;BME280;2218;51.408;7.208;2023-08-24T00:07:38;100019.66;;;24.95;54.43
4410;BME280;2218;51.408;7.208;2023-08-24T00:10:07;100019.66;;;24.95;54.32
4410;BME280;2218;51.408;7.208;2023-08-24T00:12:34;100009.19;;;24.93;54.16
4410;BME280;2218;51.408;7.208;2023-08-24T00:15:03;100011.84;;;24.93;54.43
4410;BME280;2218;51.408;7.208;2023-08-24T00:17:30;100006.50;;;24.93;54.48
4410;BME280;2218;51.408;7.208;2023-08-24T00:19:57;100011.84;;;24.93;54.28
4410;BME280;2218;51.408;7.208;2023-08-24T00:22:24;99996.88;;;24.92;54.36
4410;BME280;2218;51.408;7.208;2023-08-24T00:24:51;99999.53;;;24.92;54.38
4410;BME280;2218;51.408;7.208;2023-08-24T00:27:19;100010.16;;;24.92;54.59
4410;BME280;2218;51.408;7.208;2023-08-24T00:29:46;99997.84;;;24.91;54.48
4410;BME280;2218;51.408;7.208;2023-08-24T00:32:13;100003.16;;;24.91;54.42
4410;BME280;2218;51.408;7.208;2023-08-24T00:34:40;100003.16;;;24.91;54.46
4410;BME280;2218;51.408;7.208;2023-08-24T00:37:07;99996.97;;;24.91;54.41
4410;BME280;2218;51.408;7.208;2023-08-24T00:39:34;99994.31;;;24.91;54.40
4410;BME280;2218;51.408;7.208;2023-08-24T00:42:01;99996.16;;;24.90;54.39
4410;BME280;2218;51.408;7.208;2023-08-24T00:44:30;100000.63;;;24.90;54.46
4410;BME280;2218;51.408;7.208;2023-08-24T00:46:59;99996.16;;;24.90;54.45
4410;BME280;2218;51.408;7.208;2023-08-24T00:49:26;99987.34;;;24.90;54.55
4410;BME280;2218;51.408;7.208;2023-08-24T00:51:53;99986.50;;;24.89;54.44
4410;BME280;2218;51.408;7.208;2023-08-24T00:54:20;99993.63;;;24.89;54.29
4410;BME280;2218;51.408;7.208;2023-08-24T00:56:47;99983.84;;;24.89;54.83
4410;BME280;2218;51.408;7.208;2023-08-24T00:59:14;99982.16;;;24.88;54.44
4410;BME280;2218;51.408;7.208;2023-08-24T01:01:46;99976.00;;;24.88;54.62
4410;BME280;2218;51.408;7.208;2023-08-24T01:04:13;99986.63;;;24.88;54.62
4410;BME280;2218;51.408;7.208;2023-08-24T01:06:41;99980.47;;;24.87;54.62
4410;BME280;2218;51.408;7.208;2023-08-24T01:09:08;99982.31;;;24.87;54.55
4410;BME280;2218;51.408;7.208;2023-08-24T01:11:48;99984.09;;;24.86;54.87
4410;BME280;2218;51.408;7.208;2023-08-24T01:14:30;99978.78;;;24.86;54.51
4410;BME280;2218;51.408;7.208;2023-08-24T01:17:04;99978.09;;;24.84;54.66
4410;BME280;2218;51.408;7.208;2023-08-24T01:19:40;99983.25;;;24.86;54.88
4410;BME280;2218;51.408;7.208;2023-08-24T01:22:23;99984.25;;;24.85;54.59
4410;BME280;2218;51.408;7.208;2023-08-24T01:25:06;99978.91;;;24.85;54.58
4410;BME280;2218;51.408;7.208;2023-08-24T01:27:37;99976.25;;;24.85;54.50
4410;BME280;2218;51.408;7.208;2023-08-24T01:30:07;99968.44;;;24.83;54.86
4410;BME280;2218;51.408;7.208;2023-08-24T01:32:36;99966.63;;;24.84;54.59
4410;BME280;2218;51.408;7.208;2023-08-24T01:35:09;99964.78;;;24.84;54.61
4410;BME280;2218;51.408;7.208;2023-08-24T01:37:37;99966.63;;;24.84;54.75
4410;BME280;2218;51.408;7.208;2023-08-24T01:40:07;99961.44;;;24.82;54.70
4410;BME280;2218;51.408;7.208;2023-08-24T01:42:48;99962.28;;;24.83;54.67
4410;BME280;2218;51.408;7.208;2023-08-24T01:45:17;99955.28;;;24.82;54.89
4410;BME280;2218;51.408;7.208;2023-08-24T01:47:47;99957.06;;;24.81;54.69
4410;BME280;2218;51.408;7.208;2023-08-24T01:50:16;99959.72;;;24.81;54.81
4410;BME280;2218;51.408;7.208;2023-08-24T01:52:43;99959.72;;;24.81;54.72
4410;BME280;2218;51.408;7.208;2023-08-24T01:55:11;99967.59;;;24.83;54.92
4410;BME280;2218;51.408;7.208;2023-08-24T01:57:39;99966.75;;;24.82;54.72
4410;BME280;2218;51.408;7.208;2023-08-24T02:00:08;99967.72;;;24.81;54.92
4410;BME280;2218;51.408;7.208;2023-08-24T02:02:39;99971.34;;;24.80;54.76
4410;BME280;2218;51.408;7.208;2023-08-24T02:05:08;99957.22;;;24.80;54.79
4410;BME280;2218;51.408;7.208;2023-08-24T02:07:34;99955.41;;;24.80;54.96
4410;BME280;2218;51.408;7.208;2023-08-24T02:10:03;99951.06;;;24.79;54.73
4410;BME280;2218;51.408;7.208;2023-08-24T02:12:30;99926.47;;;24.77;54.64
4410;BME280;2218;51.408;7.208;2023-08-24T02:14:59;99929.81;;;24.79;54.89
4410;BME280;2218;51.408;7.208;2023-08-24T02:17:26;99928.13;;;24.78;54.83
4410;BME280;2218;51.408;7.208;2023-08-24T02:19:54;99932.59;;;24.78;54.78
4410;BME280;2218;51.408;7.208;2023-08-24T02:22:21;99931.78;;;24.77;55.19
4410;BME280;2218;51.408;7.208;2023-08-24T02:24:48;99926.47;;;24.77;54.83
4410;BME280;2218;51.408;7.208;2023-08-24T02:27:15;99926.47;;;24.77;54.95
4410;BME280;2218;51.408;7.208;2023-08-24T02:29:42;99937.09;;;24.77;54.87
4410;BME280;2218;51.408;7.208;2023-08-24T02:32:10;99940.69;;;24.76;55.05
4410;BME280;2218;51.408;7.208;2023-08-24T02:34:37;99946.00;;;24.76;55.10
4410;BME280;2218;51.408;7.208;2023-08-24T02:37:04;99948.66;;;24.76;54.88
4410;BME280;2218;51.408;7.208;2023-08-24T02:39:31;99949.66;;;24.75;54.97
4410;BME280;2218;51.408;7.208;2023-08-24T02:41:58;99937.34;;;24.74;54.94
4410;BME280;2218;51.408;7.208;2023-08-24T02:44:26;99922.25;;;24.74;55.06
4410;BME280;2218;51.408;7.208;2023-08-24T02:46:54;99921.41;;;24.74;54.98
4410;BME280;2218;51.408;7.208;2023-08-24T02:49:22;99925.88;;;24.73;55.09
4410;BME280;2218;51.408;7.208;2023-08-24T02:51:49;99917.91;;;24.73;55.13
4410;BME280;2218;51.408;7.208;2023-08-24T02:54:16;99931.19;;;24.73;54.77
4410;BME280;2218;51.408;7.208;2023-08-24T02:56:43;99937.34;;;24.74;55.04
4410;BME280;2218;51.408;7.208;2023-08-24T02:59:11;99933.00;;;24.73;55.08
4410;BME280;2218;51.408;7.208;2023-08-24T03:01:38;99932.19;;;24.72;54.99
4410;BME280;2218;51.408;7.208;2023-08-24T03:04:07;99923.38;;;24.72;55.23
4410;BME280;2218;51.408;7.208;2023-08-24T03:06:35;99938.47;;;24.71;55.07
4410;BME280;2218;51.408;7.208;2023-08-24T03:09:02;99932.28;;;24.71;55.08
4410;BME280;2218;51.408;7.208;2023-08-24T03:11:30;99938.47;;;24.71;54.87
4410;BME280;2218;51.408;7.208;2023-08-24T03:13:57;99931.34;;;24.72;55.09
4410;BME280;2218;51.408;7.208;2023-08-24T03:16:24;99939.31;;;24.72;55.10
4410;BME280;2218;51.408;7.208;2023-08-24T03:18:51;99940.25;;;24.71;54.99
4410;BME280;2218;51.408;7.208;2023-08-24T03:21:18;99940.25;;;24.71;55.21
4410;BME280;2218;51.408;7.208;2023-08-24T03:23:46;99931.44;;;24.70;55.16
4410;BME280;2218;51.408;7.208;2023-08-24T03:26:13;99927.97;;;24.70;55.36
4410;BME280;2218;51.408;7.208;2023-08-24T03:28:41;99926.13;;;24.70;55.17
4410;BME280;2218;51.408;7.208;2023-08-24T03:31:08;99919.16;;;24.69;55.21
4410;BME280;2218;51.408;7.208;2023-08-24T03:33:35;99924.47;;;24.69;55.17
4410;BME280;2218;51.408;7.208;2023-08-24T03:36:03;99924.47;;;24.69;55.16
4410;BME280;2218;51.408;7.208;2023-08-24T03:38:30;99927.28;;;24.68;55.27
4410;BME280;2218;51.408;7.208;2023-08-24T03:41:02;99918.31;;;24.69;55.37
4410;BME280;2218;51.408;7.208;2023-08-24T03:43:32;99921.94;;;24.68;55.27
4410;BME280;2218;51.408;7.208;2023-08-24T03:45:59;99916.63;;;24.68;55.24
4410;BME280;2218;51.408;7.208;2023-08-24T03:48:27;99911.31;;;24.68;55.18
4410;BME280;2218;51.408;7.208;2023-08-24T03:50:54;99916.63;;;24.68;55.40
4410;BME280;2218;51.408;7.208;2023-08-24T03:53:21;99921.94;;;24.68;55.28
4410;BME280;2218;51.408;7.208;2023-08-24T03:55:49;99937.91;;;24.68;55.17
4410;BME280;2218;51.408;7.208;2023-08-24T03:58:19;99934.41;;;24.67;55.36
4410;BME280;2218;51.408;7.208;2023-08-24T04:00:47;99934.53;;;24.66;55.18
4410;BME280;2218;51.408;7.208;2023-08-24T04:03:14;99944.19;;;24.67;55.24
4410;BME280;2218;51.408;7.208;2023-08-24T04:05:41;99962.81;;;24.67;55.32
4410;BME280;2218;51.408;7.208;2023-08-24T04:08:08;99962.81;;;24.67;55.31
4410;BME280;2218;51.408;7.208;2023-08-24T04:10:37;99953.13;;;24.66;55.18
4410;BME280;2218;51.408;7.208;2023-08-24T04:13:04;99958.31;;;24.67;55.22
4410;BME280;2218;51.408;7.208;2023-08-24T04:15:32;99955.78;;;24.66;55.50
4410;BME280;2218;51.408;7.208;2023-08-24T04:17:59;99944.31;;;24.65;54.98
4410;BME280;2218;51.408;7.208;2023-08-24T04:20:26;99935.50;;;24.65;55.06
4410;BME280;2218;51.408;7.208;2023-08-24T04:22:54;99932.84;;;24.65;54.97
4410;BME280;2218;51.408;7.208;2023-08-24T04:25:21;99923.06;;;24.65;55.04
4410;BME280;2218;51.408;7.208;2023-08-24T04:27:48;99909.75;;;24.65;55.13
4410;BME280;2218;51.408;7.208;2023-08-24T04:30:16;99911.59;;;24.65;55.10
4410;BME280;2218;51.408;7.208;2023-08-24T04:32:44;99910.75;;;24.64;55.05
4410;BME280;2218;51.408;7.208;2023-08-24T04:35:11;99906.28;;;24.65;54.90
4410;BME280;2218;51.408;7.208;2023-08-24T04:37:38;99915.22;;;24.64;54.96
4410;BME280;2218;51.408;7.208;2023-08-24T04:40:06;99910.75;;;24.64;55.00
4410;BME280;2218;51.408;7.208;2023-08-24T04:42:33;99917.88;;;24.64;54.86
4410;BME280;2218;51.408;7.208;2023-08-24T04:45:00;99925.84;;;24.64;54.97
4410;BME280;2218;51.408;7.208;2023-08-24T04:47:27;99905.56;;;24.63;54.92
4410;BME280;2218;51.408;7.208;2023-08-24T04:49:56;99918.88;;;24.63;55.02
4410;BME280;2218;51.408;7.208;2023-08-24T04:52:23;99908.22;;;24.63;55.02
4410;BME280;2218;51.408;7.208;2023-08-24T04:54:49;99905.56;;;24.63;55.17
4410;BME280;2218;51.408;7.208;2023-08-24T04:57:17;99892.28;;;24.63;54.97
4410;BME280;2218;51.408;7.208;2023-08-24T04:59:44;99896.78;;;24.62;54.95
4410;BME280;2218;51.408;7.208;2023-08-24T05:02:11;99897.59;;;24.63;54.77
4410;BME280;2218;51.408;7.208;2023-08-24T05:04:38;99881.66;;;24.63;54.79
4410;BME280;2218;51.408;7.208;2023-08-24T05:07:06;99859.56;;;24.62;54.83
4410;BME280;2218;51.408;7.208;2023-08-24T05:09:33;99859.69;;;24.61;54.80
4410;BME280;2218;51.408;7.208;2023-08-24T05:12:00;99860.50;;;24.61;54.88
4410;BME280;2218;51.408;7.208;2023-08-24T05:14:27;99862.34;;;24.61;54.97
4410;BME280;2218;51.408;7.208;2023-08-24T05:16:53;99865.97;;;24.60;54.86
4410;BME280;2218;51.408;7.208;2023-08-24T05:19:20;99860.66;;;24.60;54.97
4410;BME280;2218;51.408;7.208;2023-08-24T05:21:47;99855.34;;;24.60;54.94
4410;BME280;2218;51.408;7.208;2023-08-24T05:24:15;99853.69;;;24.59;55.18
4410;BME280;2218;51.408;7.208;2023-08-24T05:26:42;99843.06;;;24.59;55.24
4410;BME280;2218;51.408;7.208;2023-08-24T05:29:09;99842.22;;;24.58;55.13
4410;BME280;2218;51.408;7.208;2023-08-24T05:31:36;99839.56;;;24.58;55.08
4410;BME280;2218;51.408;7.208;2023-08-24T05:34:03;99841.38;;;24.58;55.10
4410;BME280;2218;51.408;7.208;2023-08-24T05:36:30;99833.41;;;24.58;55.05
4410;BME280;2218;51.408;7.208;2023-08-24T05:38:57;99820.13;;;24.58;55.17
4410;BME280;2218;51.408;7.208;2023-08-24T05:41:25;99809.50;;;24.58;55.14
4410;BME280;2218;51.408;7.208;2023-08-24T05:43:52;99802.50;;;24.57;55.15
4410;BME280;2218;51.408;7.208;2023-08-24T05:46:19;99807.81;;;24.57;55.05
4410;BME280;2218;51.408;7.208;2023-08-24T05:48:46;99798.03;;;24.57;55.19
4410;BME280;2218;51.408;7.208;2023-08-24T05:51:13;99807.81;;;24.57;55.29
4410;BME280;2218;51.408;7.208;2023-08-24T05:53:40;99797.19;;;24.57;55.28
4410;BME280;2218;51.408;7.208;2023-08-24T05:56:07;99791.88;;;24.57;55.19
4410;BME280;2218;51.408;7.208;2023-08-24T05:58:35;99788.34;;;24.56;55.45
4410;BME280;2218;51.408;7.208;2023-08-24T06:01:02;99795.47;;;24.56;55.17
4410;BME280;2218;51.408;7.208;2023-08-24T06:03:29;99793.66;;;24.56;55.45
4410;BME280;2218;51.408;7.208;2023-08-24T06:06:01;99794.66;;;24.55;55.50
4410;BME280;2218;51.408;7.208;2023-08-24T06:08:29;99784.03;;;24.55;55.21
4410;BME280;2218;51.408;7.208;2023-08-24T06:10:57;99784.03;;;24.55;55.46
4410;BME280;2218;51.408;7.208;2023-08-24T06:13:24;99778.69;;;24.55;55.35
4410;BME280;2218;51.408;7.208;2023-08-24T06:15:52;99775.22;;;24.55;55.42
4410;BME280;2218;51.408;7.208;2023-08-24T06:18:20;99774.22;;;24.56;55.37
4410;BME280;2218;51.408;7.208;2023-08-24T06:20:47;99775.06;;;24.56;55.33
4410;BME280;2218;51.408;7.208;2023-08-24T06:23:16;99765.31;;;24.57;55.51
4410;BME280;2218;51.408;7.208;2023-08-24T06:25:43;99763.59;;;24.56;55.33
4410;BME280;2218;51.408;7.208;2023-08-24T06:28:10;99756.34;;;24.58;55.32
4410;BME280;2218;51.408;7.208;2023-08-24T06:30:37;99766.97;;;24.58;55.28
4410;BME280;2218;51.408;7.208;2023-08-24T06:33:07;99773.97;;;24.59;55.53
4410;BME280;2218;51.408;7.208;2023-08-24T06:35:34;99765.31;;;24.57;55.44
4410;BME280;2218;51.408;7.208;2023-08-24T06:38:01;99769.63;;;24.58;55.39
4410;BME280;2218;51.408;7.208;2023-08-24T06:40:29;99763.34;;;24.59;55.43
4410;BME280;2218;51.408;7.208;2023-08-24T06:42:56;99762.50;;;24.58;55.42
4410;BME280;2218;51.408;7.208;2023-08-24T06:45:23;99763.34;;;24.59;55.42
4410;BME280;2218;51.408;7.208;2023-08-24T06:47:50;99768.50;;;24.60;55.31
4410;BME280;2218;51.408;7.208;2023-08-24T06:50:19;99774.66;;;24.61;55.49
4410;BME280;2218;51.408;7.208;2023-08-24T06:52:47;99767.50;;;24.61;55.47
4410;BME280;2218;51.408;7.208;2023-08-24T06:55:14;99765.56;;;24.63;55.41
4410;BME280;2218;51.408;7.208;2023-08-24T06:57:41;99762.75;;;24.65;55.40
4410;BME280;2218;51.408;7.208;2023-08-24T07:00:09;99766.13;;;24.67;55.39
4410;BME280;2218;51.408;7.208;2023-08-24T07:02:38;99764.16;;;24.69;55.38
4410;BME280;2218;51.408;7.208;2023-08-24T07:05:06;99764.84;;;24.71;55.44
4410;BME280;2218;51.408;7.208;2023-08-24T07:07:35;99771.16;;;24.70;55.07
4410;BME280;2218;51.408;7.208;2023-08-24T07:10:03;99778.16;;;24.71;54.81
4410;BME280;2218;51.408;7.208;2023-08-24T07:12:30;99768.38;;;24.71;54.26
4410;BME280;2218;51.408;7.208;2023-08-24T07:14:57;99759.44;;;24.72;54.07
4410;BME280;2218;51.408;7.208;2023-08-24T07:17:24;99754.78;;;24.74;54.22
4410;BME280;2218;51.408;7.208;2023-08-24T07:19:51;99753.97;;;24.74;54.37
4410;BME280;2218;51.408;7.208;2023-08-24T07:22:19;99756.34;;;24.77;54.22
4410;BME280;2218;51.408;7.208;2023-08-24T07:24:47;99759.00;;;24.77;54.38
4410;BME280;2218;51.408;7.208;2023-08-24T07:27:18;99759.69;;;24.79;54.07
4410;BME280;2218;51.408;7.208;2023-08-24T07:29:45;99758.69;;;24.80;54.13
4410;BME280;2218;51.408;7.208;2023-08-24T07:32:12;99755.06;;;24.81;54.29
4410;BME280;2218;51.408;7.208;2023-08-24T07:34:39;99761.09;;;24.83;54.09
4410;BME280;2218;51.408;7.208;2023-08-24T07:37:06;99750.47;;;24.83;53.92
4410;BME280;2218;51.408;7.208;2023-08-24T07:39:33;99753.81;;;24.85;53.96
4410;BME280;2218;51.408;7.208;2023-08-24T07:42:02;99749.31;;;24.86;53.99
4410;BME280;2218;51.408;7.208;2023-08-24T07:44:29;99755.47;;;24.86;54.16
4410;BME280;2218;51.408;7.208;2023-08-24T07:46:56;99751.88;;;24.87;53.83
4410;BME280;2218;51.408;7.208;2023-08-24T07:49:22;99749.63;;;24.92;53.83
4410;BME280;2218;51.408;7.208;2023-08-24T07:51:50;99742.63;;;24.91;54.32
4410;BME280;2218;51.408;7.208;2023-08-24T07:54:16;99744.28;;;24.92;54.26
4410;BME280;2218;51.408;7.208;2023-08-24T07:56:43;99737.31;;;24.91;54.09
4410;BME280;2218;51.408;7.208;2023-08-24T07:59:11;99732.00;;;24.91;53.92
4410;BME280;2218;51.408;7.208;2023-08-24T08:01:38;99732.69;;;24.93;54.07
4410;BME280;2218;51.408;7.208;2023-08-24T08:04:05;99726.38;;;24.94;53.93
4410;BME280;2218;51.408;7.208;2023-08-24T08:06:32;99730.84;;;24.94;54.22
4410;BME280;2218;51.408;7.208;2023-08-24T08:08:59;99742.31;;;24.94;53.98
4410;BME280;2218;51.408;7.208;2023-08-24T08:11:26;99745.69;;;24.96;54.16
4410;BME280;2218;51.408;7.208;2023-08-24T08:13:53;99749.88;;;24.99;54.12
4410;BME280;2218;51.408;7.208;2023-08-24T08:16:21;99743.72;;;24.98;54.22
4410;BME280;2218;51.408;7.208;2023-08-24T08:18:48;99748.06;;;24.99;54.18
4410;BME280;2218;51.408;7.208;2023-08-24T08:21:17;99747.91;;;25.01;54.31
4410;BME280;2218;51.408;7.208;2023-08-24T08:23:45;99751.44;;;25.01;54.35
4410;BME280;2218;51.408;7.208;2023-08-24T08:26:13;99752.38;;;25.00;54.33
4410;BME280;2218;51.408;7.208;2023-08-24T08:28:40;99758.25;;;25.04;54.45
4410;BME280;2218;51.408;7.208;2023-08-24T08:31:07;99749.44;;;25.04;54.46
4410;BME280;2218;51.408;7.208;2023-08-24T08:33:35;99744.13;;;25.04;54.38
4410;BME280;2218;51.408;7.208;2023-08-24T08:36:03;99743.16;;;25.05;54.59
4410;BME280;2218;51.408;7.208;2023-08-24T08:38:30;99731.53;;;25.06;54.51
4410;BME280;2218;51.408;7.208;2023-08-24T08:41:03;99725.38;;;25.05;54.57
4410;BME280;2218;51.408;7.208;2023-08-24T08:43:30;99716.56;;;25.05;54.57
4410;BME280;2218;51.408;7.208;2023-08-24T08:45:59;99715.72;;;25.04;54.66
4410;BME280;2218;51.408;7.208;2023-08-24T08:48:27;99721.88;;;25.05;54.55
4410;BME280;2218;51.408;7.208;2023-08-24T08:50:57;99719.97;;;25.07;54.51
4410;BME280;2218;51.408;7.208;2023-08-24T08:53:26;99713.50;;;25.09;54.29
4410;BME280;2218;51.408;7.208;2023-08-24T08:55:55;99710.00;;;25.09;54.53
4410;BME280;2218;51.408;7.208;2023-08-24T08:58:25;99717.81;;;25.10;54.32
4410;BME280;2218;51.408;7.208;2023-08-24T09:00:54;99716.31;;;25.08;54.67
4410;BME280;2218;51.408;7.208;2023-08-24T09:03:21;99711.66;;;25.10;54.83
4410;BME280;2218;51.408;7.208;2023-08-24T09:05:49;99715.88;;;25.12;54.55
4410;BME280;2218;51.408;7.208;2023-08-24T09:08:18;99714.06;;;25.13;54.55
4410;BME280;2218;51.408;7.208;2023-08-24T09:10:45;99701.75;;;25.12;54.69
4410;BME280;2218;51.408;7.208;2023-08-24T09:13:13;99699.09;;;25.12;54.62
4410;BME280;2218;51.408;7.208;2023-08-24T09:15:40;99686.47;;;25.14;54.65
4410;BME280;2218;51.408;7.208;2023-08-24T09:18:07;99681.84;;;25.16;54.63
4410;BME280;2218;51.408;7.208;2023-08-24T09:20:35;99670.38;;;25.15;54.76
4410;BME280;2218;51.408;7.208;2023-08-24T09:23:02;99667.28;;;25.20;54.65
4410;BME280;2218;51.408;7.208;2023-08-24T09:25:30;99658.69;;;25.26;54.46
4410;BME280;2218;51.408;7.208;2023-08-24T09:27:58;99653.53;;;25.24;54.78
4410;BME280;2218;51.408;7.208;2023-08-24T09:30:30;99650.03;;;25.24;54.60
4410;BME280;2218;51.408;7.208;2023-08-24T09:33:02;99648.22;;;25.24;54.75
4410;BME280;2218;51.408;7.208;2023-08-24T09:35:34;99639.25;;;25.25;54.70
4410;BME280;2218;51.408;7.208;2023-08-24T09:38:16;99629.44;;;25.26;54.56
4410;BME280;2218;51.408;7.208;2023-08-24T09:40:47;99616.00;;;25.27;54.77
4410;BME280;2218;51.408;7.208;2023-08-24T09:43:14;99617.69;;;25.29;54.48
4410;BME280;2218;51.408;7.208;2023-08-24T09:45:49;99606.22;;;25.28;54.73
4410;BME280;2218;51.408;7.208;2023-08-24T09:48:17;99602.56;;;25.29;54.63
4410;BME280;2218;51.408;7.208;2023-08-24T09:50:46;99597.25;;;25.29;54.50
4410;BME280;2218;51.408;7.208;2023-08-24T09:53:17;99596.25;;;25.30;54.45
4410;BME280;2218;51.408;7.208;2023-08-24T09:55:54;99597.09;;;25.31;54.39
4410;BME280;2218;51.408;7.208;2023-08-24T09:58:23;99610.38;;;25.31;54.64
4410;BME280;2218;51.408;7.208;2023-08-24T10:00:51;99601.44;;;25.32;54.80
4410;BME280;2218;51.408;7.208;2023-08-24T10:03:20;99595.28;;;25.31;54.61
4410;BME280;2218;51.408;7.208;2023-08-24T10:05:51;99600.59;;;25.31;54.67
4410;BME280;2218;51.408;7.208;2023-08-24T10:08:23;99612.91;;;25.32;54.67
4410;BME280;2218;51.408;7.208;2023-08-24T10:10:56;99614.59;;;25.33;54.72
4410;BME280;2218;51.408;7.208;2023-08-24T10:13:32;99627.88;;;25.33;54.95
4410;BME280;2218;51.408;7.208;2023-08-24T10:16:05;99626.91;;;25.34;54.28
4410;BME280;2218;51.408;7.208;2023-08-24T10:18:33;99626.91;;;25.34;54.66
4410;BME280;2218;51.408;7.208;2023-08-24T10:21:01;99633.88;;;25.35;54.58
4410;BME280;2218;51.408;7.208;2023-08-24T10:23:29;99636.53;;;25.35;54.60
4410;BME280;2218;51.408;7.208;2023-08-24T10:26:02;99645.34;;;25.36;54.58
4410;BME280;2218;51.408;7.208;2023-08-24T10:28:30;99636.53;;;25.35;54.64
4410;BME280;2218;51.408;7.208;2023-08-24T10:30:59;99641.88;;;25.35;54.94
4410;BME280;2218;51.408;7.208;2023-08-24T10:33:29;99639.19;;;25.35;54.79
4410;BME280;2218;51.408;7.208;2023-08-24T10:35:58;99636.53;;;25.35;54.47
4410;BME280;2218;51.408;7.208;2023-08-24T10:38:26;99645.34;;;25.36;55.24
4410;BME280;2218;51.408;7.208;2023-08-24T10:40:55;99650.69;;;25.36;54.92
4410;BME280;2218;51.408;7.208;2023-08-24T10:43:29;99644.53;;;25.35;54.49
4410;BME280;2218;51.408;7.208;2023-08-24T10:45:58;99645.50;;;25.34;54.54
4410;BME280;2218;51.408;7.208;2023-08-24T10:48:28;99639.19;;;25.35;54.84
4410;BME280;2218;51.408;7.208;2023-08-24T10:51:22;99629.41;;;25.36;54.88
4410;BME280;2218;51.408;7.208;2023-08-24T10:53:55;99625.91;;;25.35;54.73
4410;BME280;2218;51.408;7.208;2023-08-24T10:56:30;99628.56;;;25.35;54.77
4410;BME280;2218;51.408;7.208;2023-08-24T10:59:13;99635.25;;;25.39;54.57
4410;BME280;2218;51.408;7.208;2023-08-24T11:01:42;99628.00;;;25.41;55.08
4410;BME280;2218;51.408;7.208;2023-08-24T11:04:11;99622.66;;;25.41;54.45
4410;BME280;2218;51.408;7.208;2023-08-24T11:06:55;99627.00;;;25.42;55.08
4410;BME280;2218;51.408;7.208;2023-08-24T11:09:24;99631.34;;;25.43;54.73
4410;BME280;2218;51.408;7.208;2023-08-24T11:11:59;99633.00;;;25.44;54.45
4410;BME280;2218;51.408;7.208;2023-08-24T11:14:29;99627.69;;;25.44;54.94
4410;BME280;2218;51.408;7.208;2023-08-24T11:16:58;99627.69;;;25.44;54.97
4410;BME280;2218;51.408;7.208;2023-08-24T11:19:26;99614.38;;;25.44;54.36
4410;BME280;2218;51.408;7.208;2023-08-24T11:21:53;99623.19;;;25.45;54.97
4410;BME280;2218;51.408;7.208;2023-08-24T11:24:21;99624.88;;;25.46;54.81
4410;BME280;2218;51.408;7.208;2023-08-24T11:26:49;99618.72;;;25.45;54.45
4410;BME280;2218;51.408;7.208;2023-08-24T11:29:18;99601.91;;;25.45;54.90
4410;BME280;2218;51.408;7.208;2023-08-24T11:31:47;99592.94;;;25.46;55.06
4410;BME280;2218;51.408;7.208;2023-08-24T11:34:15;99583.16;;;25.46;54.94
4410;BME280;2218;51.408;7.208;2023-08-24T11:36:43;99572.50;;;25.46;54.62
4410;BME280;2218;51.408;7.208;2023-08-24T11:39:16;99573.34;;;25.47;54.77
4410;BME280;2218;51.408;7.208;2023-08-24T11:41:46;99568.84;;;25.47;54.97
4410;BME280;2218;51.408;7.208;2023-08-24T11:44:22;99573.19;;;25.48;55.07
4410;BME280;2218;51.408;7.208;2023-08-24T11:46:51;99575.84;;;25.48;54.89
4410;BME280;2218;51.408;7.208;2023-08-24T11:49:18;99567.88;;;25.48;54.93
4410;BME280;2218;51.408;7.208;2023-08-24T11:51:45;99570.53;;;25.48;55.17
4410;BME280;2218;51.408;7.208;2023-08-24T11:54:16;99572.34;;;25.48;55.04
4410;BME280;2218;51.408;7.208;2023-08-24T11:56:44;99572.34;;;25.48;55.00
4410;BME280;2218;51.408;7.208;2023-08-24T11:59:13;99577.69;;;25.48;54.92
4410;BME280;2218;51.408;7.208;2023-08-24T12:01:41;99574.19;;;25.47;54.94
4410;BME280;2218;51.408;7.208;2023-08-24T12:04:10;99577.69;;;25.48;55.02
4410;BME280;2218;51.408;7.208;2023-08-24T12:06:37;99583.81;;;25.48;54.98
4410;BME280;2218;51.408;7.208;2023-08-24T12:09:06;99586.50;;;25.48;55.09
4410;BME280;2218;51.408;7.208;2023-08-24T12:11:36;99596.13;;;25.49;55.25
4410;BME280;2218;51.408;7.208;2023-08-24T12:14:05;99593.47;;;25.49;54.84
4410;BME280;2218;51.408;7.208;2023-08-24T12:16:35;99589.97;;;25.49;54.90
4410;BME280;2218;51.408;7.208;2023-08-24T12:19:07;99581.00;;;25.50;55.44
4410;BME280;2218;51.408;7.208;2023-08-24T12:21:36;99580.19;;;25.49;55.14
4410;BME280;2218;51.408;7.208;2023-08-24T12:24:05;99584.50;;;25.50;55.24
4410;BME280;2218;51.408;7.208;2023-08-24T12:26:35;99573.84;;;25.50;54.95
4410;BME280;2218;51.408;7.208;2023-08-24T12:29:04;99573.84;;;25.50;54.81
4410;BME280;2218;51.408;7.208;2023-08-24T12:31:32;99567.56;;;25.51;54.69
4410;BME280;2218;51.408;7.208;2023-08-24T12:34:02;99570.25;;;25.51;55.24
4410;BME280;2218;51.408;7.208;2023-08-24T12:36:30;99555.22;;;25.50;55.35
4410;BME280;2218;51.408;7.208;2023-08-24T12:38:59;99553.28;;;25.52;55.10
4410;BME280;2218;51.408;7.208;2023-08-24T12:41:26;99541.81;;;25.52;55.25
4410;BME280;2218;51.408;7.208;2023-08-24T12:43:53;99539.97;;;25.52;54.99
4410;BME280;2218;51.408;7.208;2023-08-24T12:46:20;99525.00;;;25.51;55.28
4410;BME280;2218;51.408;7.208;2023-08-24T12:48:47;99519.69;;;25.51;55.33
4410;BME280;2218;51.408;7.208;2023-08-24T12:51:14;99515.19;;;25.52;55.03
4410;BME280;2218;51.408;7.208;2023-08-24T12:53:41;99501.88;;;25.52;55.26
4410;BME280;2218;51.408;7.208;2023-08-24T12:56:10;99493.06;;;25.51;55.04
4410;BME280;2218;51.408;7.208;2023-08-24T12:58:37;99494.03;;;25.50;55.34
4410;BME280;2218;51.408;7.208;2023-08-24T13:01:04;99508.22;;;25.51;55.25
4410;BME280;2218;51.408;7.208;2023-08-24T13:03:32;99498.53;;;25.50;54.90
4410;BME280;2218;51.408;7.208;2023-08-24T13:06:01;99493.19;;;25.50;55.28
4410;BME280;2218;51.408;7.208;2023-08-24T13:08:31;99481.72;;;25.49;55.13
4410;BME280;2218;51.408;7.208;2023-08-24T13:10:58;99484.38;;;25.49;55.21
4410;BME280;2218;51.408;7.208;2023-08-24T13:13:26;99464.94;;;25.49;55.59
4410;BME280;2218;51.408;7.208;2023-08-24T13:15:54;99456.13;;;25.48;55.20
4410;BME280;2218;51.408;7.208;2023-08-24T13:18:21;99449.81;;;25.49;55.68
4410;BME280;2218;51.408;7.208;2023-08-24T13:20:48;99432.16;;;25.48;55.53
4410;BME280;2218;51.408;7.208;2023-08-24T13:23:16;99425.84;;;25.49;55.55
4410;BME280;2218;51.408;7.208;2023-08-24T13:25:43;99416.22;;;25.48;55.37
4410;BME280;2218;51.408;7.208;2023-08-24T13:28:10;99415.22;;;25.49;55.07